首页
METAR-TAF:

METAR-TAF

机场 :

谢列梅捷沃国际机场

莫斯科舍列梅季耶夫, 俄罗斯

纬度: 55-58N, 经度: 037-25E, 海拔: 190米

当前天气观测

该预报发布于42分钟前的13:30 UTC
风速8节,风向西
温度 -5°C
湿度 93%
气压 1026 hPa
能见度10公里或以上
多云层高于1000英尺

METAR: UUEE 201330Z 26004MPS 9999 BKN010 M05/M06 Q1026 R24L/410151 R24C/410140 NOSIG

时间: 17:12 (14:12 UTC)

预报

该预报发布于3小时和7分钟前的11:05 UTC
预报有效从20日的 12点(UTC)到 21日的 12点(UTC)
风速6节,风向西
能見度: 9000
多云层高于700英尺
短暂存在
从 20日的 12点(UTC)到 20日的 15点(UTC)
阴天层高于400英尺
几率 40% :
短暂存在
从 20日的 15点(UTC)到 20日的 23点(UTC)
阴天层高于400英尺
(小) 冻, 毛毛雨
成为
从 20日的 23点(UTC)到 21日的 01点(UTC)
风速6节,风向北转西北
多云层高于1100英尺
短暂存在
从 21日的 01点(UTC)到 21日的 12点(UTC)
能見度: 3100
散云层高于1500英尺, 积雨云.
小阵雪

TAF: UUEE 201105Z 2012/2112 27003MPS 9000 BKN007 TXM01/2109Z TNM04/2012Z TEMPO 2012/2015 OVC004 PROB40 TEMPO 2015/2023 -FZDZ OVC004 BECMG 2023/2101 33003MPS BKN011 TEMPO 2101/2112 3100 -SHSN SCT015CB

超过4000个机场的气象观测和天气预报(METAR&TAF报告)。

可查询的气象台以黄色和红色小点在地图上表示。

将鼠标移到小点上方,可查看气象台名称。

然后点击查看天气观测和预报。

如需切换地图:点击带黑十字的绿色按钮放大地图;点击带横线的绿色按钮缩小地图;或者点击绿色箭头查看邻近地区的地图。


METAR-TAF: